Date,TemperatureHighF,TemperatureAvgF,TemperatureLowF,DewpointHighF,DewpointAvgF,DewpointLowF,HumidityHigh,HumidityAvg,HumidityLow,PressureMaxIn,PressureMinIn,WindSpeedMaxMPH,WindSpeedAvgMPH,GustSpeedMaxMPH,PrecipitationSumIn
2014-1-1,49.6,48.6,47.5,25.7,25.0,24.4,40,39,39,0.00,40.00,0,-999,0,0.00
2014-1-2,65.1,52.0,40.3,38.1,28.6,20.9,47,41,35,0.00,40.00,0,-999,0,0.00
2014-1-3,64.4,52.4,42.1,38.6,30.0,23.8,49,42,36,0.00,40.00,0,-999,0,0.00
2014-1-4,65.1,52.7,41.0,40.0,29.9,23.8,51,42,33,0.00,40.00,0,-999,0,0.00
2014-1-5,64.6,52.8,41.5,35.3,25.4,15.3,39,34,32,0.00,40.00,0,-999,0,0.00
2014-1-6,59.5,49.6,40.8,36.8,28.5,20.8,49,44,39,0.00,40.00,0,-999,0,0.00
2014-1-7,63.1,52.9,44.6,39.7,33.2,27.8,56,47,38,0.00,40.00,0,-999,0,0.00
2014-1-8,59.7,54.2,50.4,48.4,43.8,37.5,72,68,56,0.00,40.00,0,-999,0,0.00
2014-1-9,61.9,53.5,48.7,51.1,44.4,40.2,78,71,64,0.00,40.00,0,-999,0,0.00
2014-1-10,63.1,52.4,42.1,48.5,40.6,33.7,72,64,55,0.00,40.00,0,-999,0,0.00
2014-1-11,58.1,50.7,45.1,49.1,41.8,35.2,77,72,63,0.00,40.00,0,-999,0,0.00
2014-1-12,59.4,50.5,42.8,48.8,39.5,31.9,82,67,50,0.00,40.00,0,-999,0,0.00
2014-1-13,66.2,55.9,49.1,43.2,35.5,28.9,53,47,38,0.00,40.00,0,-999,0,0.00
2014-1-14,70.2,57.8,46.4,39.3,32.5,26.7,50,39,31,0.00,40.00,0,-999,0,0.00
2014-1-15,69.8,57.3,46.0,39.3,29.8,22.2,40,35,32,0.00,40.00,0,-999,0,0.00
2014-1-16,70.7,55.5,42.1,39.1,27.9,18.9,39,35,30,0.00,40.00,0,-999,0,0.00
2014-1-17,68.2,53.7,40.5,38.0,27.6,17.9,41,36,32,0.00,40.00,0,-999,0,0.00
2014-1-18,70.2,54.0,39.6,39.3,27.1,18.8,44,36,28,0.00,40.00,0,-999,0,0.00
2014-1-19,67.1,52.9,39.7,37.5,26.3,16.8,40,36,31,0.00,40.00,0,-999,0,0.00
2014-1-20,68.9,53.0,39.6,38.6,26.5,18.9,44,36,29,0.00,40.00,0,-999,0,0.00
2014-1-21,68.2,52.4,38.8,37.5,24.5,16.0,40,34,28,0.00,40.00,0,-999,0,0.00
2014-1-22,70.5,53.7,39.4,35.9,23.4,14.8,38,31,24,0.00,40.00,0,-999,0,0.00
2014-1-23,64.0,53.8,42.8,33.7,24.5,15.9,36,32,28,0.00,40.00,0,-999,0,0.00
2014-1-24,67.8,54.4,43.3,38.1,28.3,20.4,42,37,33,0.00,40.00,0,-999,0,0.00
2014-1-25,71.8,57.3,45.9,40.0,28.7,21.2,41,34,27,0.00,40.00,0,-999,0,0.00
2014-1-26,70.0,57.0,46.0,37.5,27.2,18.7,37,32,28,0.00,40.00,0,-999,0,0.00
2014-1-27,64.9,54.2,44.4,42.5,34.0,24.0,55,46,36,0.00,40.00,0,-999,0,0.00
2014-1-28,68.5,61.2,52.7,51.2,46.0,39.0,72,58,50,0.00,40.00,0,-999,0,0.00
2014-1-29,64.4,60.9,57.7,56.2,53.1,50.6,78,75,72,0.00,40.00,0,-999,0,0.00
2014-1-30,61.7,56.2,52.7,51.8,47.3,43.2,80,72,63,0.00,40.00,0,-999,0,0.00
2014-1-31,63.3,54.2,45.9,48.0,40.0,29.2,74,60,44,0.00,40.00,0,-999,0,0.00
2014-2-1,61.0,48.7,37.2,39.1,30.8,24.2,60,50,39,0.00,40.00,0,-999,0,0.00
2014-2-2,47.5,45.3,42.1,38.0,33.2,26.4,72,63,50,0.00,40.00,0,-999,0,0.00
2014-2-3,57.2,48.9,41.7,45.0,37.9,32.2,75,66,56,0.00,40.00,0,-999,0,0.00
2014-2-4,56.8,47.1,38.8,42.5,34.7,28.8,70,62,53,0.00,40.00,0,-999,0,0.00
2014-2-5,57.2,48.5,38.5,42.6,36.0,29.2,70,62,52,0.00,40.00,0,-999,0,0.00
2014-2-6,55.4,51.2,46.8,46.0,42.8,38.7,76,73,68,0.00,40.00,0,-999,0,0.00
2014-2-7,55.6,53.1,51.1,48.3,46.9,44.8,82,79,76,0.00,40.00,0,-999,0,0.00
2014-2-8,59.5,57.8,55.4,54.7,51.9,48.2,84,81,76,0.00,40.00,0,-999,0,0.00
2014-2-9,60.6,58.4,56.8,56.4,54.4,52.7,90,87,83,0.00,40.00,0,-999,0,0.00
2014-2-10,62.4,57.6,54.5,56.9,53.5,50.1,91,86,80,0.00,40.00,0,-999,0,0.00
2014-2-11,64.4,55.8,50.2,55.1,49.6,45.2,89,80,67,0.00,40.00,0,-999,0,0.00
2014-2-12,66.6,55.6,46.2,53.5,47.0,40.9,83,73,57,0.00,40.00,0,-999,0,0.00
2014-2-13,73.2,61.7,52.5,60.0,51.7,44.3,79,70,62,0.00,40.00,0,-999,0,0.00
2014-2-14,65.7,60.1,54.5,55.7,51.9,46.4,81,75,68,0.00,40.00,0,-999,0,0.00
2014-2-15,60.6,54.6,50.2,53.2,47.5,43.3,81,77,74,0.00,40.00,0,-999,0,0.00
2014-2-16,66.6,58.4,50.0,52.7,45.9,36.0,82,65,46,0.00,40.00,0,-999,0,0.00
2014-2-17,64.2,53.4,42.8,47.1,38.9,31.3,66,58,48,0.00,40.00,0,-999,0,0.00
2014-2-18,64.2,53.6,44.2,48.5,41.4,34.4,70,63,52,0.00,40.00,0,-999,0,0.00
2014-2-19,66.9,58.6,51.8,52.7,45.2,37.5,78,62,45,0.00,40.00,0,-999,0,0.00
2014-2-20,67.3,56.5,44.4,42.7,37.4,32.9,65,50,37,0.00,40.00,0,-999,0,0.00
2014-2-21,72.3,58.6,45.1,45.4,36.4,29.0,54,44,35,0.00,40.00,0,-999,0,0.00
2014-2-22,72.5,59.3,46.4,45.3,37.6,30.7,55,45,34,0.00,40.00,0,-999,0,0.00
2014-2-23,71.2,57.5,46.8,48.5,39.5,31.6,66,52,38,0.00,40.00,0,-999,0,0.00
2014-2-24,72.5,59.8,45.5,46.7,39.0,30.9,57,47,36,0.00,40.00,0,-999,0,0.00
2014-2-25,70.5,59.1,48.2,49.0,40.7,32.8,58,51,43,0.00,40.00,0,-999,0,0.00
2014-2-26,60.1,57.2,55.2,50.3,46.4,40.2,75,67,56,0.00,40.00,0,-999,0,0.00
2014-2-27,67.1,60.2,54.3,52.6,47.8,42.6,75,64,53,0.00,40.00,0,-999,0,0.00
2014-2-28,60.4,57.4,54.5,50.3,47.2,41.7,73,69,52,0.00,40.00,0,-999,0,0.00
2014-3-1,66.6,59.0,53.8,50.4,46.0,43.7,71,62,53,0.00,40.00,0,-999,0,0.00
2014-3-2,62.1,56.6,52.5,52.2,46.4,42.4,73,69,64,0.00,40.00,0,-999,0,0.00
2014-3-3,60.3,54.7,48.7,49.3,45.7,28.7,76,72,31,0.00,40.00,0,-999,0,0.00
2014-3-4,67.3,60.4,54.9,57.6,52.4,48.1,82,75,68,0.00,40.00,0,-999,0,0.00
2014-3-5,69.8,62.5,55.4,58.8,52.8,49.3,81,71,58,0.00,40.00,0,-999,0,0.00
2014-3-6,68.9,62.3,55.6,56.7,51.2,45.2,79,67,54,0.00,40.00,0,-999,0,0.00
2014-3-7,69.8,59.0,48.2,52.1,45.2,39.6,74,61,47,0.00,40.00,0,-999,0,0.00
2014-3-8,71.4,60.4,47.5,50.2,44.4,37.1,68,56,46,0.00,40.00,0,-999,0,0.00
2014-3-9,74.3,65.2,58.3,53.9,49.5,45.2,66,57,47,0.00,40.00,0,-999,0,0.00
2014-3-10,68.9,63.1,57.9,50.8,44.9,36.3,66,52,42,0.00,40.00,0,-999,0,0.00
2014-3-11,67.8,61.9,54.1,37.7,33.8,28.5,44,35,28,0.00,40.00,0,-999,0,0.00
2014-3-12,73.4,65.2,55.9,35.3,29.7,23.3,29,26,24,0.00,40.00,0,-999,0,0.00
2014-3-13,77.7,62.9,48.4,40.3,30.9,22.7,37,30,24,0.00,40.00,0,-999,0,0.00
2014-3-14,73.8,61.3,49.8,47.3,39.3,30.1,52,44,35,0.00,40.00,0,-999,0,0.00
2014-3-15,78.4,64.8,50.2,47.8,40.5,34.2,57,42,30,0.00,40.00,0,-999,0,0.00
2014-3-16,82.0,65.4,51.8,48.5,39.5,32.2,48,39,27,0.00,40.00,0,-999,0,0.00
2014-3-17,68.4,60.7,53.1,45.9,39.3,31.0,58,46,34,0.00,40.00,0,-999,0,0.00
2014-3-18,69.6,59.8,47.8,37.8,32.1,26.4,46,36,27,0.00,40.00,0,-999,0,0.00
2014-3-19,74.8,61.1,45.7,41.9,32.7,23.0,42,35,28,0.00,40.00,0,-999,0,0.00
2014-3-20,77.4,63.3,52.3,65.1,42.5,30.6,90,49,31,0.00,40.00,0,-999,0,0.00
2014-3-21,71.8,59.2,48.0,49.2,42.0,35.4,64,54,42,0.00,40.00,0,-999,0,0.00
2014-3-22,73.4,59.5,49.5,49.9,42.3,35.7,66,54,42,0.00,40.00,0,-999,0,0.00
2014-3-23,74.1,60.5,49.1,50.5,42.1,35.4,63,51,41,0.00,40.00,0,-999,0,0.00
2014-3-24,79.5,63.9,48.0,49.3,40.1,32.8,56,43,31,0.00,40.00,0,-999,0,0.00
2014-3-25,64.4,57.1,48.0,47.2,40.2,29.8,67,54,39,0.00,40.00,0,-999,0,0.00
2014-3-26,61.3,55.9,52.0,50.8,45.9,43.0,75,69,62,0.00,40.00,0,-999,0,0.00
2014-3-27,66.2,58.5,52.3,50.8,45.9,43.2,75,64,51,0.00,40.00,0,-999,0,0.00
2014-3-28,72.0,61.6,53.1,52.5,46.4,42.8,68,58,47,0.00,40.00,0,-999,0,0.00
2014-3-29,61.7,58.1,54.3,51.8,47.0,43.4,74,67,58,0.00,40.00,0,-999,0,0.00
2014-3-30,64.8,56.4,47.3,50.6,43.8,38.6,76,63,50,0.00,40.00,0,-999,0,0.00
2014-3-31,57.4,50.8,47.3,43.9,39.5,36.5,71,65,58,0.00,40.00,0,-999,0,0.00
2014-4-1,60.4,50.8,45.9,47.9,41.1,37.0,75,69,60,0.00,40.00,0,-999,0,0.00
2014-4-2,61.2,53.2,44.2,46.8,41.2,36.7,76,64,51,0.00,40.00,0,-999,0,0.00
2014-4-3,67.5,55.8,45.9,48.6,41.5,36.3,70,59,44,0.00,40.00,0,-999,0,0.00
2014-4-4,62.4,55.3,51.3,47.7,42.8,38.6,70,63,53,0.00,40.00,0,-999,0,0.00
2014-4-5,70.0,58.5,48.6,52.6,45.5,39.4,75,63,50,0.00,40.00,0,-999,0,0.00
2014-4-6,78.1,63.6,48.9,53.9,46.3,38.8,69,55,38,0.00,40.00,0,-999,0,0.00
2014-4-7,80.1,68.1,54.1,55.7,48.6,41.2,63,50,40,0.00,40.00,0,-999,0,0.00
2014-4-8,83.8,70.8,57.6,58.8,50.0,44.2,63,49,36,0.00,40.00,0,-999,0,0.00
2014-4-9,81.3,68.7,56.5,53.3,44.2,34.9,56,42,30,0.00,40.00,0,-999,0,0.00
2014-4-10,82.8,67.2,49.1,48.5,40.7,30.3,52,39,29,0.00,40.00,0,-999,0,0.00
2014-4-11,74.1,64.5,56.5,50.6,44.0,38.8,56,47,39,0.00,40.00,0,-999,0,0.00
2014-4-12,72.0,61.3,55.9,49.9,44.5,40.8,62,54,44,0.00,40.00,0,-999,0,0.00
2014-4-13,77.0,64.5,55.6,53.3,46.3,42.6,64,53,34,0.00,40.00,0,-999,0,0.00
2014-4-14,78.8,65.1,53.1,54.3,46.0,38.7,67,51,38,0.00,40.00,0,-999,0,0.00
2014-4-15,77.5,64.8,54.1,52.6,45.2,40.1,63,50,37,0.00,40.00,0,-999,0,0.00
2014-4-16,81.7,67.1,51.8,53.0,44.6,37.9,61,46,32,0.00,40.00,0,-999,0,0.00
2014-4-17,77.4,64.6,55.2,52.0,43.7,37.1,53,47,41,0.00,40.00,0,-999,0,0.00
2014-4-18,76.8,63.6,52.7,52.5,44.3,39.1,61,50,40,0.00,40.00,0,-999,0,0.00
2014-4-19,71.4,60.7,52.5,47.2,43.7,39.0,64,54,41,0.00,40.00,0,-999,0,0.00
2014-4-20,81.7,66.9,54.5,56.1,46.6,36.7,70,51,32,0.00,40.00,0,-999,0,0.00
2014-4-21,76.5,64.1,52.5,46.1,38.6,32.9,49,39,32,0.00,40.00,0,-999,0,0.00
2014-4-22,69.4,60.1,52.5,42.9,38.5,33.6,56,45,36,0.00,40.00,0,-999,0,0.00
2014-4-23,71.6,60.2,46.2,42.9,37.5,28.6,51,43,35,0.00,40.00,0,-999,0,0.00
2014-4-24,70.7,62.1,53.2,48.7,44.6,38.1,62,53,44,0.00,40.00,0,-999,0,0.00
2014-4-25,61.0,56.9,51.3,48.8,46.1,41.7,73,67,62,0.00,40.00,0,-999,0,0.00
2014-4-26,66.0,56.4,47.3,48.5,42.6,38.6,74,61,47,0.00,40.00,0,-999,0,0.00
2014-4-27,68.9,59.5,53.6,50.8,43.6,39.7,65,56,47,0.00,40.00,0,-999,0,0.00
2014-4-28,77.0,64.7,49.1,52.7,45.0,38.0,67,50,36,0.00,40.00,0,-999,0,0.00
2014-4-29,84.4,70.6,52.3,51.5,42.9,35.7,55,38,25,0.00,40.00,0,-999,0,0.00
2014-4-30,88.9,75.8,59.4,51.1,44.4,37.0,45,33,25,0.00,40.00,0,-999,0,0.00
2014-5-1,93.6,78.1,61.3,54.1,43.0,31.4,44,30,20,0.00,40.00,0,-999,0,0.00
2014-5-2,87.6,72.6,57.7,46.8,37.9,29.7,45,29,20,0.00,40.00,0,-999,0,0.00
2014-5-3,72.5,63.9,56.7,47.9,43.2,40.4,56,47,39,0.00,40.00,0,-999,0,0.00
2014-5-4,72.7,63.7,56.7,50.8,46.1,41.9,63,53,44,0.00,40.00,0,-999,0,0.00
2014-5-5,71.4,62.4,56.7,50.1,44.8,39.5,65,53,42,0.00,40.00,0,-999,0,0.00
2014-5-6,73.6,62.9,53.6,47.2,41.8,38.3,56,47,35,0.00,40.00,0,-999,0,0.00
2014-5-7,73.4,61.5,52.5,48.9,42.3,38.1,60,50,40,0.00,40.00,0,-999,0,0.00
2014-5-8,70.0,62.4,55.0,52.5,46.8,40.2,68,57,52,0.00,40.00,0,-999,0,0.00
2014-5-9,73.6,64.1,57.7,55.5,49.2,42.5,74,59,45,0.00,40.00,0,-999,0,0.00
2014-5-10,73.8,63.4,50.7,49.4,43.4,38.6,64,49,37,0.00,40.00,0,-999,0,0.00
2014-5-11,80.6,68.4,53.2,44.5,39.2,32.3,55,36,24,0.00,40.00,0,-999,0,0.00
2014-5-12,87.6,72.3,52.9,47.5,36.9,28.6,40,29,20,0.00,40.00,0,-999,0,0.00
2014-5-13,92.8,77.6,59.0,46.6,37.1,27.7,34,24,18,0.00,40.00,0,-999,0,0.00
2014-5-14,97.5,81.1,61.9,45.4,37.0,27.6,29,21,16,0.00,40.00,0,-999,0,0.00
2014-5-15,96.3,79.7,62.4,44.3,36.3,27.3,27,21,16,0.00,40.00,0,-999,0,0.00
2014-5-16,85.3,72.0,60.3,45.3,37.5,28.4,44,29,22,0.00,40.00,0,-999,0,0.00
2014-5-17,74.1,64.8,57.2,48.9,44.2,39.6,55,47,40,0.00,40.00,0,-999,0,0.00
2014-5-18,75.0,64.9,57.4,52.0,46.0,41.7,59,51,41,0.00,40.00,0,-999,0,0.00
2014-5-19,71.6,62.7,57.2,50.5,45.4,42.7,62,54,44,0.00,40.00,0,-999,0,0.00
2014-5-20,74.8,64.5,55.9,51.9,46.8,43.1,64,53,43,0.00,40.00,0,-999,0,0.00
2014-5-21,81.9,68.3,58.3,55.9,49.3,43.2,65,52,39,0.00,40.00,0,-999,0,0.00
2014-5-22,81.0,67.5,58.1,56.2,49.6,44.7,66,54,40,0.00,40.00,0,-999,0,0.00
2014-5-23,82.0,67.5,56.3,56.5,49.4,44.3,69,53,38,0.00,40.00,0,-999,0,0.00
2014-5-24,83.8,69.6,59.2,56.5,49.2,43.5,63,49,37,0.00,40.00,0,-999,0,0.00
2014-5-25,91.0,73.3,57.2,57.0,47.4,40.1,59,41,28,0.00,40.00,0,-999,0,0.00
2014-5-26,89.6,73.3,57.0,53.9,45.0,37.2,48,37,29,0.00,40.00,0,-999,0,0.00
2014-5-27,81.0,68.5,56.8,49.1,42.4,37.8,54,40,29,0.00,40.00,0,-999,0,0.00
2014-5-28,83.1,69.8,54.1,45.7,40.6,35.8,50,36,24,0.00,40.00,0,-999,0,0.00
2014-5-29,87.8,71.7,55.8,46.5,37.1,30.5,42,29,21,0.00,40.00,0,-999,0,0.00
2014-5-30,74.3,63.5,53.8,45.7,38.7,28.3,54,41,30,0.00,40.00,0,-999,0,0.00
2014-5-31,82.9,68.5,55.9,52.7,44.7,37.7,60,44,30,0.00,40.00,0,-999,0,0.00
2014-6-1,88.9,73.5,56.7,51.5,41.3,34.2,48,33,22,0.00,40.00,0,-999,0,0.00
2014-6-2,75.0,65.2,56.5,47.8,42.4,34.5,56,44,30,0.00,40.00,0,-999,0,0.00
2014-6-3,82.2,68.6,56.8,52.8,46.3,41.6,62,46,31,0.00,40.00,0,-999,0,0.00
2014-6-4,91.2,74.1,57.2,55.7,45.7,38.5,56,38,24,0.00,40.00,0,-999,0,0.00
2014-6-5,88.5,75.4,61.5,51.6,43.7,36.6,44,33,25,0.00,40.00,0,-999,0,0.00
2014-6-6,84.9,71.3,59.7,52.0,45.0,38.3,52,39,31,0.00,40.00,0,-999,0,0.00
2014-6-7,90.0,73.7,58.1,58.1,49.0,41.0,63,44,30,0.00,40.00,0,-999,0,0.00
2014-6-8,102.4,84.4,64.4,56.0,47.1,40.4,48,30,17,0.00,40.00,0,-999,0,0.00
2014-6-9,104.9,85.6,69.1,54.3,44.1,37.9,34,24,15,0.00,40.00,0,-999,0,0.00
2014-6-10,88.3,75.3,63.0,53.8,46.1,40.3,52,36,29,0.00,40.00,0,-999,0,0.00
2014-6-11,82.6,69.7,60.6,54.5,48.7,44.2,59,48,36,0.00,40.00,0,-999,0,0.00
2014-6-12,74.1,65.3,57.9,51.0,47.2,44.4,64,53,41,0.00,40.00,0,-999,0,0.00
2014-6-13,86.7,70.6,56.5,55.5,47.7,43.3,65,46,30,0.00,40.00,0,-999,0,0.00
2014-6-14,90.9,73.6,58.6,52.0,43.9,36.0,51,36,23,0.00,40.00,0,-999,0,0.00
2014-6-15,78.3,66.0,57.2,50.7,44.2,38.8,55,46,36,0.00,40.00,0,-999,0,0.00
2014-6-16,73.6,63.9,57.9,49.0,43.6,39.7,58,48,38,0.00,40.00,0,-999,0,0.00
2014-6-17,82.4,68.8,54.3,49.3,43.0,36.9,56,41,30,0.00,40.00,0,-999,0,0.00
2014-6-18,91.9,75.0,57.2,50.2,38.7,30.4,39,28,20,0.00,40.00,0,-999,0,0.00
2014-6-19,88.9,75.0,58.5,49.9,39.4,27.6,38,28,21,0.00,40.00,0,-999,0,0.00
2014-6-20,90.7,74.0,58.8,53.5,43.7,36.0,47,35,25,0.00,40.00,0,-999,0,0.00
2014-6-21,78.1,67.0,59.2,47.5,42.5,37.4,51,41,33,0.00,40.00,0,-999,0,0.00
2014-6-22,81.9,66.5,55.8,51.8,45.1,40.8,60,47,33,0.00,40.00,0,-999,0,0.00
2014-6-23,86.0,70.5,57.0,56.6,48.3,42.5,65,47,31,0.00,40.00,0,-999,0,0.00
2014-6-24,83.7,71.0,59.7,51.9,46.5,40.3,54,42,32,0.00,40.00,0,-999,0,0.00
2014-6-25,75.0,66.5,59.2,56.6,52.1,46.1,69,60,52,0.00,40.00,0,-999,0,0.00
2014-6-26,77.9,68.0,61.7,58.2,53.0,48.4,73,60,45,0.00,40.00,0,-999,0,0.00
2014-6-27,81.9,70.3,60.6,59.2,54.6,50.0,70,58,45,0.00,40.00,0,-999,0,0.00
2014-6-28,84.4,71.8,62.2,57.9,52.6,46.1,67,52,36,0.00,40.00,0,-999,0,0.00
2014-6-29,95.9,78.1,59.2,57.7,50.3,43.8,59,40,26,0.00,40.00,0,-999,0,0.00
2014-6-30,103.1,84.0,67.6,55.7,44.8,38.3,38,26,17,0.00,40.00,0,-999,0,0.00
2014-7-1,88.7,74.6,62.8,55.2,47.8,41.3,52,39,30,0.00,40.00,0,-999,0,0.00
2014-7-2,84.9,69.6,60.3,57.8,50.6,44.8,65,52,37,0.00,40.00,0,-999,0,0.00
2014-7-3,86.5,71.2,59.2,58.5,51.2,46.1,68,51,35,0.00,40.00,0,-999,0,0.00
2014-7-4,89.1,73.9,59.7,57.9,47.2,39.4,55,40,27,0.00,40.00,0,-999,0,0.00
2014-7-5,92.1,75.7,58.6,54.7,43.6,36.0,53,34,19,0.00,40.00,0,-999,0,0.00
2014-7-6,95.0,78.5,60.8,51.9,40.6,33.3,38,27,17,0.00,40.00,0,-999,0,0.00
2014-7-7,83.3,74.4,65.7,50.1,43.9,32.4,41,34,24,0.00,40.00,0,-999,0,0.00
2014-7-8,89.6,74.7,64.9,57.7,49.4,45.1,53,42,30,0.00,40.00,0,-999,0,0.00
2014-7-9,87.8,73.0,61.5,58.7,51.3,45.5,63,47,35,0.00,40.00,0,-999,0,0.00
2014-7-10,85.5,71.9,61.9,58.2,52.0,47.1,63,50,38,0.00,40.00,0,0,0,0.00
2014-7-11,80.8,69.9,63.3,56.6,51.7,47.6,63,53,41,0.00,40.00,0,0,0,0.00
2014-7-12,82.9,69.5,61.9,58.2,51.9,47.6,67,55,40,0.00,40.00,0,0,0,0.00
2014-7-13,88.7,72.8,59.2,61.2,54.1,48.7,72,54,37,0.00,40.00,0,0,0,0.00
2014-7-14,99.1,81.4,66.9,59.0,51.9,47.2,50,37,25,0.00,40.00,0,0,0,0.00
2014-7-15,88.5,77.5,69.6,60.5,54.0,48.3,51,45,38,0.00,40.00,0,0,0,0.00
2014-7-16,84.9,72.4,64.9,62.1,54.3,50.1,67,54,39,0.00,40.00,0,0,0,0.00
2014-7-17,81.9,71.1,63.9,59.3,54.2,50.6,67,56,44,0.00,40.00,0,0,0,0.00
2014-7-18,81.7,69.6,64.4,59.5,54.8,50.7,67,60,44,0.00,40.00,0,0,0,0.00
2014-7-19,88.7,73.7,64.0,62.7,55.3,50.8,69,54,38,0.00,40.00,0,0,0,0.00
2014-7-20,82.2,71.6,64.6,61.6,55.6,52.1,69,58,45,0.00,40.00,0,0,0,0.00
2014-7-21,83.1,72.4,66.0,62.1,56.4,52.0,69,58,44,0.00,40.00,0,0,0,0.00
2014-7-22,82.6,70.8,64.2,60.6,55.2,52.0,69,58,45,0.00,40.00,0,0,0,0.00
2014-7-23,84.4,73.4,66.6,61.0,56.1,52.7,67,56,41,0.00,40.00,0,0,0,0.00
2014-7-24,94.5,78.3,62.1,62.3,54.9,47.2,68,47,29,0.00,40.00,0,0,0,0.00
2014-7-25,100.9,84.3,66.6,55.7,46.9,38.7,43,29,17,0.00,40.00,0,0,0,0.00
2014-7-26,100.0,83.7,68.2,55.5,42.7,36.5,34,24,16,0.00,40.00,0,0,0,0.00
2014-7-27,97.3,82.5,72.0,54.7,44.8,36.5,41,28,17,0.00,40.00,0,0,0,0.00
2014-7-28,93.2,77.9,65.5,56.7,48.8,41.2,51,37,28,0.00,40.00,0,0,0,0.00
2014-7-29,95.7,81.3,68.5,58.8,47.9,39.3,50,33,18,0.00,40.00,0,0,0,0.00
2014-7-30,96.6,81.5,68.2,56.4,48.6,41.8,45,32,23,0.00,40.00,0,0,0,0.00
2014-7-31,94.3,80.3,66.0,58.4,49.7,44.5,50,36,24,0.00,40.00,0,0,0,0.00
2014-8-1,97.0,76.4,68.2,56.9,46.5,42.2,44,35,21,0.00,40.00,0,0,0,0.00
2014-8-2,86.9,73.9,63.5,57.2,50.1,44.3,56,44,34,0.00,40.00,0,0,0,0.00
2014-8-3,83.1,69.3,62.1,58.5,52.5,47.9,68,56,41,0.00,40.00,0,0,0,0.00
2014-8-4,82.0,69.8,61.9,59.6,53.8,49.8,70,58,44,0.00,40.00,0,0,0,0.00
2014-8-5,88.7,75.1,63.9,62.3,56.9,51.2,69,54,40,0.00,40.00,0,0,0,0.00
2014-8-6,91.4,79.9,72.0,64.0,56.6,49.6,61,46,34,0.00,40.00,0,0,0,0.00
2014-8-7,85.5,72.8,64.2,60.9,52.5,47.6,64,50,36,0.00,40.00,0,0,0,0.00
2014-8-8,86.9,72.3,61.3,59.4,52.1,46.2,68,51,33,0.00,40.00,0,0,0,0.00
2014-8-9,79.7,67.5,59.9,56.3,50.4,46.0,66,55,43,0.00,40.00,0,0,0,0.00
2014-8-10,84.4,69.7,60.3,58.8,52.8,49.2,69,56,41,0.00,40.00,0,0,0,0.00
2014-8-11,89.1,72.9,61.2,62.5,53.6,48.3,68,52,36,0.00,40.00,0,0,0,0.00
2014-8-12,83.8,71.0,61.9,57.8,52.2,48.7,66,52,39,0.00,40.00,0,0,0,0.00
2014-8-13,85.3,72.1,61.2,58.2,53.1,49.9,68,53,37,0.00,40.00,0,0,0,0.00
2014-8-14,86.9,74.4,63.1,60.2,52.0,45.9,66,47,30,0.00,40.00,0,0,0,0.00
2014-8-15,90.7,76.0,62.6,58.8,49.4,43.5,56,40,28,0.00,40.00,0,0,0,0.00
2014-8-16,90.7,74.7,62.6,59.1,49.5,41.0,62,43,29,0.00,40.00,0,0,0,0.00
2014-8-17,87.6,72.2,60.1,55.9,47.5,40.7,58,43,29,0.00,40.00,0,0,0,0.00
2014-8-18,81.7,68.7,61.9,58.4,52.2,46.4,67,56,43,0.00,40.00,0,0,0,0.00
2014-8-19,79.2,68.3,62.4,60.6,54.7,51.3,71,63,50,0.00,40.00,0,0,0,0.00
2014-8-20,80.2,70.7,63.9,58.9,55.2,51.5,69,59,47,0.00,40.00,0,0,0,0.00
2014-8-21,88.0,73.6,62.2,62.2,55.2,50.7,70,54,38,0.00,40.00,0,0,0,0.00
2014-8-22,84.9,71.5,63.5,59.7,53.3,49.7,66,53,40,0.00,40.00,0,0,0,0.00
2014-8-23,85.3,70.8,61.0,58.9,52.3,48.2,69,54,35,0.00,40.00,0,0,0,0.00
2014-8-24,83.1,70.2,62.1,58.5,52.4,48.3,67,54,40,0.00,40.00,0,0,0,0.00
2014-8-25,76.5,67.6,63.0,57.4,52.9,49.8,68,60,48,0.00,40.00,0,0,0,0.00
2014-8-26,86.2,71.1,60.3,59.8,52.9,48.9,69,54,36,0.00,40.00,0,0,0,0.00
2014-8-27,92.7,76.0,61.7,59.9,52.1,46.5,62,45,28,0.00,40.00,0,0,0,0.00
2014-8-28,91.0,70.5,62.6,60.4,49.3,45.5,62,48,32,0.00,40.00,0,0,0,0.00
2014-8-29,86.2,71.9,62.8,60.8,53.0,47.0,67,52,41,0.00,40.00,0,0,0,0.00
2014-8-30,91.2,75.5,63.1,57.2,50.2,45.8,55,42,28,0.00,40.00,0,0,0,0.00
2014-8-31,89.6,74.5,63.7,60.3,52.6,47.2,66,48,31,0.00,40.00,0,0,0,0.00
2014-9-1,95.9,78.4,62.1,56.4,49.1,43.0,53,37,25,0.00,40.00,0,0,0,0.00
2014-9-2,82.4,72.6,64.2,55.9,49.2,40.5,61,44,31,0.00,40.00,0,0,0,0.00
2014-9-3,86.7,71.9,63.0,59.4,53.7,49.7,67,54,37,0.00,40.00,0,0,0,0.00
2014-9-4,86.5,72.1,63.1,59.9,53.4,49.1,68,53,36,0.00,40.00,0,0,0,0.00
2014-9-5,84.2,70.7,63.5,60.7,53.9,49.4,68,56,42,0.00,40.00,0,0,0,0.00
2014-9-6,84.7,69.4,61.2,59.5,52.1,46.7,68,55,40,0.00,40.00,0,0,0,0.00
2014-9-7,82.8,68.7,60.3,57.7,50.9,46.8,67,54,38,0.00,40.00,0,0,0,0.00
2014-9-8,75.0,65.3,59.2,52.9,49.1,45.8,66,56,44,0.00,40.00,0,0,0,0.00
2014-9-9,85.5,69.9,58.8,57.2,50.4,44.7,69,52,32,0.00,40.00,0,0,0,0.00
2014-9-10,93.6,76.8,59.2,55.5,47.5,41.2,54,38,22,0.00,40.00,0,0,0,0.00
2014-9-11,97.3,80.4,64.4,53.7,44.6,39.2,43,30,18,0.00,40.00,0,0,0,0.00
2014-9-12,97.5,80.4,65.5,53.2,44.7,36.6,37,29,21,0.00,40.00,0,0,0,0.00
2014-9-13,93.4,78.8,67.6,56.4,49.2,43.3,47,36,29,0.00,40.00,0,0,0,0.00
2014-9-14,89.6,76.8,64.0,55.8,47.6,41.5,55,37,24,0.00,40.00,0,0,0,0.00
2014-9-15,83.3,72.3,64.0,55.0,48.5,41.0,57,44,33,0.00,40.00,0,0,0,0.00
2014-9-16,87.8,73.1,61.0,57.0,51.0,47.0,61,47,30,0.00,40.00,0,0,0,0.00
2014-9-17,87.8,73.3,63.0,58.8,52.5,47.7,67,49,34,0.00,40.00,0,0,0,0.00
2014-9-18,81.9,74.5,68.5,62.4,57.0,53.4,65,55,44,0.00,40.00,0,0,0,0.00
2014-9-19,83.5,72.2,62.8,62.5,56.1,52.4,70,58,42,0.00,40.00,0,0,0,0.00
2014-9-20,83.1,71.2,64.8,63.3,56.1,52.4,73,60,42,0.00,40.00,0,0,0,0.00
2014-9-21,74.7,67.7,64.4,61.0,56.5,54.0,72,68,59,0.00,40.00,0,0,0,0.00
2014-9-22,84.4,71.0,64.6,62.0,56.6,52.6,74,61,41,0.00,40.00,0,0,0,0.00
2014-9-23,84.4,71.7,63.0,61.0,56.1,53.2,71,59,40,0.00,40.00,0,0,0,0.00
2014-9-24,81.9,72.2,66.7,64.8,59.9,57.5,77,66,52,0.00,40.00,0,0,0,0.00
2014-9-25,75.9,68.2,62.4,60.8,56.5,52.4,79,67,49,0.00,40.00,0,0,0,0.00
2014-9-26,76.6,67.8,60.8,59.4,53.7,50.5,74,62,47,0.00,40.00,0,0,0,0.00
2014-9-27,77.9,67.9,61.3,58.8,53.9,51.7,72,62,46,0.00,40.00,0,0,0,0.00
2014-9-28,77.4,67.5,59.7,58.0,54.0,50.3,72,62,49,0.00,40.00,0,0,0,0.00
2014-9-29,77.4,66.8,61.0,60.7,54.2,50.9,75,65,47,0.00,40.00,0,0,0,0.00
2014-9-30,79.5,68.3,59.7,60.8,54.5,50.5,76,63,45,0.00,40.00,0,0,0,0.00
2014-10-1,83.1,71.3,58.5,54.4,44.9,32.5,69,43,22,0.00,40.00,0,0,0,0.00
2014-10-2,87.4,72.9,56.5,48.2,38.1,30.5,40,29,21,0.00,40.00,0,0,0,0.00
2014-10-3,91.8,76.0,59.9,50.1,39.1,31.4,40,28,18,0.00,40.00,0,0,0,0.00
2014-10-4,93.0,77.0,60.6,44.7,36.4,28.8,34,24,17,0.00,40.00,0,0,0,0.00
2014-10-5,94.1,77.7,61.2,44.4,36.0,27.8,32,23,17,0.00,40.00,0,0,0,0.00
2014-10-6,94.8,77.6,61.7,44.8,38.4,30.3,35,25,18,0.00,40.00,0,0,0,0.00
2014-10-7,90.0,74.7,60.8,52.1,43.0,35.1,43,33,25,0.00,40.00,0,0,0,0.00
2014-10-8,91.4,74.3,59.4,53.4,44.6,39.1,48,36,21,0.00,40.00,0,0,0,0.00
2014-10-9,81.7,69.4,59.2,53.4,45.7,39.0,56,43,33,0.00,40.00,0,0,0,0.00
2014-10-10,78.1,66.9,59.5,56.5,50.3,46.0,68,56,42,0.00,40.00,0,0,0,0.00
2014-10-11,84.6,68.7,58.1,58.5,50.3,43.7,70,53,37,0.00,40.00,0,0,0,0.00
2014-10-12,87.8,74.1,60.6,45.7,39.9,29.6,53,32,18,0.00,40.00,0,0,0,0.00
2014-10-13,89.2,73.9,59.9,40.3,32.5,24.0,25,22,18,0.00,40.00,0,0,0,0.00
2014-10-14,76.1,67.8,58.6,50.6,44.3,31.4,50,43,26,0.00,40.00,0,0,0,0.00
2014-10-15,73.9,67.8,63.0,56.0,50.2,46.5,67,54,43,0.00,40.00,0,0,0,0.00
2014-10-16,73.0,63.9,55.4,51.9,46.4,41.9,66,54,39,0.00,40.00,0,0,0,0.00
2014-10-17,74.5,64.3,53.8,49.9,45.0,40.2,61,50,40,0.00,40.00,0,0,0,0.00
2014-10-18,78.6,67.8,57.0,53.3,47.8,41.4,58,49,41,0.00,40.00,0,0,0,0.00
2014-10-19,79.5,67.6,58.1,57.2,51.2,46.0,66,56,43,0.00,40.00,0,0,0,0.00
2014-10-20,71.2,65.3,60.3,57.6,53.5,49.7,69,66,58,0.00,40.00,0,0,0,0.00
2014-10-21,71.2,61.7,51.8,52.4,46.9,42.7,72,59,41,0.00,40.00,0,0,0,0.00
2014-10-22,74.8,63.5,51.8,52.1,47.1,40.6,66,56,42,0.00,40.00,0,0,0,0.00
2014-10-23,74.7,66.2,58.1,56.3,51.4,47.5,70,59,49,0.00,40.00,0,0,0,0.00
2014-10-24,76.8,65.2,54.9,55.4,50.2,44.1,68,59,45,0.00,40.00,0,0,0,0.00
2014-10-25,72.0,65.7,61.2,57.7,52.7,50.1,72,63,51,0.00,40.00,0,0,0,0.00
2014-10-26,69.4,62.3,54.7,52.6,47.7,39.9,75,60,43,0.00,40.00,0,0,0,0.00
2014-10-27,71.4,59.9,48.7,49.4,43.1,37.1,66,54,41,0.00,40.00,0,0,0,0.00
2014-10-28,74.3,61.8,50.0,48.5,42.9,37.7,63,51,37,0.00,40.00,0,0,0,0.00
2014-10-29,77.7,65.8,53.2,48.6,42.1,37.6,58,43,31,0.00,40.00,0,0,0,0.00
2014-10-30,78.1,65.5,58.1,49.6,43.5,37.5,59,45,33,0.00,40.00,0,0,0,0.00
2014-10-31,64.6,61.5,58.1,52.4,50.1,47.8,73,66,59,0.00,40.00,0,0,0,0.00
2014-11-1,66.0,58.7,53.1,53.0,47.4,42.0,75,66,53,0.00,40.00,0,0,0,0.00
2014-11-2,67.8,57.1,47.3,49.7,42.4,36.6,72,59,43,0.00,40.00,0,0,0,0.00
2014-11-3,69.1,57.1,46.6,45.5,40.1,35.4,66,54,38,0.00,40.00,0,0,0,0.00
2014-11-4,70.9,59.1,47.3,47.9,40.5,35.1,64,51,38,0.00,40.00,0,0,0,0.00
2014-11-5,73.4,62.5,51.1,46.6,41.1,35.2,55,46,36,0.00,40.00,0,0,0,0.00
2014-11-6,77.2,63.9,52.9,51.4,44.5,38.0,59,50,36,0.00,40.00,0,0,0,0.00
2014-11-7,75.0,63.0,51.6,53.5,46.5,40.7,69,56,44,0.00,40.00,0,0,0,0.00
2014-11-8,78.3,65.1,52.5,53.3,45.4,39.6,63,50,38,0.00,40.00,0,0,0,0.00
2014-11-9,77.7,64.8,52.9,50.4,43.9,37.4,57,47,36,0.00,40.00,0,0,0,0.00
2014-11-10,77.0,62.9,52.9,52.0,45.2,38.3,65,53,40,0.00,40.00,0,0,0,0.00
2014-11-11,67.8,61.6,59.0,49.5,47.1,44.7,67,59,49,0.00,40.00,0,0,0,0.00
2014-11-12,66.9,62.1,58.8,47.4,44.8,42.7,62,53,45,0.00,40.00,0,0,0,0.00
2014-11-13,64.8,61.4,57.7,56.1,52.4,43.8,77,72,52,0.00,40.00,0,0,0,0.00
2014-11-14,67.5,60.1,52.7,55.5,51.1,46.4,80,72,61,0.00,40.00,0,0,0,0.00
2014-11-15,67.1,61.0,51.1,54.2,49.5,43.8,76,66,58,0.00,40.00,0,0,0,0.00
2014-11-16,66.9,60.1,49.1,51.7,40.0,29.3,73,48,35,0.00,40.00,0,0,0,0.00
2014-11-17,64.9,54.5,43.7,38.4,33.2,27.9,55,45,35,0.00,40.00,0,0,0,0.00
2014-11-18,52.0,48.1,47.7,33.4,31.6,31.4,53,53,49,0.00,40.00,0,0,0,0.00
2014-11-19,47.7,47.7,47.7,31.4,31.4,31.4,53,53,53,0.00,40.00,0,0,0,0.00
2014-11-20,58.6,52.0,47.7,52.8,40.9,31.4,83,67,53,0.00,40.00,0,0,0,0.00
2014-11-21,62.8,57.5,52.7,53.3,50.5,48.3,86,78,68,0.00,40.00,0,0,0,0.00
2014-11-22,66.0,60.3,54.5,60.2,52.9,47.3,87,77,70,0.00,40.00,0,0,0,0.00
2014-11-23,63.5,55.1,47.8,51.3,44.0,36.1,82,67,49,0.00,40.00,0,0,0,0.00
2014-11-24,66.4,54.1,43.3,44.2,37.4,32.8,67,54,39,0.00,40.00,0,0,0,0.00
2014-11-25,64.2,54.6,45.5,45.2,37.9,31.1,60,53,46,0.00,40.00,0,0,0,0.00
2014-11-26,67.3,56.3,45.9,48.1,41.2,35.0,68,57,46,0.00,40.00,0,0,0,0.00
2014-11-27,70.3,57.5,47.8,50.9,43.3,37.8,69,60,47,0.00,40.00,0,0,0,0.00
2014-11-28,64.8,53.6,42.4,49.1,41.6,31.1,72,64,54,0.00,40.00,0,0,0,0.00
2014-11-29,63.9,59.4,55.9,55.1,51.5,46.7,82,75,71,0.00,40.00,0,0,0,0.00
2014-11-30,58.5,56.6,53.4,53.1,51.6,48.7,86,83,80,0.00,40.00,0,0,0,0.00
2014-12-1,65.1,57.8,52.0,58.8,53.6,48.5,90,86,78,0.00,40.00,0,0,0,0.00
2014-12-2,58.6,56.6,54.9,55.8,53.6,52.2,91,90,87,0.00,40.00,0,0,0,0.00
2014-12-3,63.9,59.8,57.6,60.0,57.0,54.3,93,90,84,0.00,40.00,0,0,0,0.00
2014-12-4,67.6,59.9,56.1,60.9,55.6,51.6,93,86,74,0.00,40.00,0,0,0,0.00
2014-12-5,66.0,59.9,54.1,58.8,54.5,49.7,87,82,76,0.00,40.00,0,0,0,0.00
2014-12-6,69.8,63.1,59.0,61.3,56.4,53.2,88,79,68,0.00,40.00,0,0,0,0.00
2014-12-7,62.6,58.3,54.1,57.2,53.4,49.7,88,84,80,0.00,40.00,0,0,0,0.00
2014-12-8,67.5,58.8,51.8,57.9,52.9,48.7,90,81,69,0.00,40.00,0,0,0,0.00
2014-12-9,64.2,58.4,54.3,55.8,52.3,49.0,85,80,74,0.00,40.00,0,0,0,0.00
2014-12-10,63.7,58.8,54.1,56.9,53.0,50.6,90,81,66,0.00,40.00,0,0,0,0.00
2014-12-11,65.1,60.1,52.5,52.8,51.1,47.5,84,72,62,0.00,40.00,0,0,0,0.00
2014-12-12,55.9,52.5,49.5,50.4,47.5,44.5,85,83,80,0.00,40.00,0,0,0,0.00
2014-12-13,54.5,49.7,46.4,49.5,45.0,42.5,88,84,81,0.00,40.00,0,0,0,0.00
2014-12-14,56.8,50.5,46.8,48.8,44.9,42.2,86,81,73,0.00,40.00,0,0,0,0.00
2014-12-15,56.3,52.0,48.4,50.0,47.4,44.4,88,84,78,0.00,40.00,0,0,0,0.00
2014-12-16,61.0,53.8,48.6,52.8,47.4,44.6,87,79,66,0.00,40.00,0,0,0,0.00
2014-12-17,58.8,52.2,47.5,52.3,46.8,43.5,86,82,73,0.00,40.00,0,0,0,0.00
2014-12-18,60.1,54.7,51.3,53.7,49.1,46.5,87,82,76,0.00,40.00,0,0,0,0.00
2014-12-19,58.5,55.8,52.0,53.5,50.9,47.2,89,83,78,0.00,40.00,0,0,0,0.00
2014-12-20,61.0,58.2,56.1,56.5,53.8,52.1,92,86,77,0.00,40.00,0,0,0,0.00
2014-12-21,64.2,60.1,57.2,59.6,56.0,51.8,91,87,82,0.00,40.00,0,0,0,0.00
2014-12-22,66.0,60.7,55.6,58.6,55.3,50.2,89,83,73,0.00,40.00,0,0,0,0.00
2014-12-23,68.2,58.5,50.7,55.6,49.5,44.1,86,73,55,0.00,40.00,0,0,0,0.00
2014-12-24,58.8,52.0,47.7,52.3,44.8,39.1,84,76,72,0.00,40.00,0,0,0,0.00
2014-12-25,57.7,48.8,41.7,40.9,35.9,23.3,73,62,27,29.68,29.62,8,0,10,0.06
2014-12-26,60.4,49.1,39.4,99.9,28.8,24.8,70,46,29,29.83,29.66,9,2,62,0.24
2014-12-27,59.9,44.2,33.3,99.9,32.8,28.1,86,65,40,29.96,29.83,5,0,6,0.18
2014-12-28,66.2,48.8,36.9,99.9,38.6,29.6,93,70,39,29.94,29.80,4,0,13,0.30
2014-12-29,59.5,49.0,32.8,99.9,39.9,33.7,88,69,51,29.81,29.67,14,1,46,0.24
2014-12-30,65.4,45.6,36.5,99.9,24.2,11.1,90,46,22,29.81,29.66,15,4,96,0.38
2014-12-31,58.8,47.3,32.0,99.9,11.3,-15.0,41,24,11,29.93,29.64,14,4,21,0.20
2015-1-1,66.3,43.7,29.4,99.9,23.6,-60.3,76,47,10,30.00,29.64,8,2,8,27.50
2015-1-2,96.2,40.5,28.0,33.5,28.4,-69.5,84,66,10,30.05,29.93,6,1,9,4.32